Kezdőlap
METAR-TAF:

METAR-TAF

Repülőterek :

Londonderry, Észak-Írország

földrajzi szélesség: 55-03N, földrajzi hosszúság: 007-09W, magasság: 9 m

Jelenlegi meteorológiai megfigyelések

A jelentés 23 perccel ezelõtt készült, 09:50 UTC
Nyugat-délnyugati szél 14 kt, déli és nyugati között változik
Hőmérséklet 13°C
Páratartalom 72%
Légköri nyomás 993 hPa
Látótávolság 10 km, vagy több
Kevés felhő 2100 lábon
Szórványos felhőzet 2800 lábon
enyhe záporok,

METAR: EGAE 140950Z 25014KT 180V280 9999 -SHRA FEW021 SCT028 13/08 Q0993

Idő: 11:13 (10:13 UTC)

Előrejelzés

A jelentés 2 órával és 12 perccel ezelõtt készült, 08:01 UTC
Az előrejelzés 14-én 09 óra UTC és 14-én 18 óra UTC között érvényes
Nyugat-délnyugati szél 10 kt
Látótávolság 10 km, vagy több
Szórványos felhőzet 2500 lábon
14-én 09 óra UTC és 14-én 18 óra UTC között ideiglenes
Látótávolság: 6000 m
záporok,

TAF: EGAE 140801Z 1409/1418 25010KT 9999 SCT025 TEMPO 1409/1418 6000 SHRA

Meteorológiai megfigyelések és előrejelzések több, mint 4000 repülőtéren (METAR és TAF jelentéseket).

A térképen piros és sárga pontok jelzik az elérhető meteorológiai állomásokat.

Mozgassa az egeret a pont fölött, hogy megjelenjen az állomás neve.

Azután kattintson az időjárási megfigyelések és előrejelzések megtekintéséhez.

A térkép megváltoztatása: kattintson a fekete keresztel jelölt zöld gombra ráközelítéshez, a vonallal jelölt zöld gombra távolításhoz, vagy a zöld nyilakra a szomszédos térképek eléréséhez.


METAR-TAF: